sensor_id;sensor_type;location;lat;lon;timestamp;P1;durP1;ratioP1;P2;durP2;ratioP2
9970;SDS011;5026;51.494;11.974;2023-03-03T00:02:04;31.70;;;11.47;;
9970;SDS011;5026;51.494;11.974;2023-03-03T00:04:31;28.50;;;11.47;;
9970;SDS011;5026;51.494;11.974;2023-03-03T00:06:58;28.07;;;11.87;;
9970;SDS011;5026;51.494;11.974;2023-03-03T00:09:25;23.50;;;10.17;;
9970;SDS011;5026;51.494;11.974;2023-03-03T00:11:54;21.90;;;10.80;;
9970;SDS011;5026;51.494;11.974;2023-03-03T00:14:25;30.63;;;11.90;;
9970;SDS011;5026;51.494;11.974;2023-03-03T00:16:55;25.63;;;11.57;;
9970;SDS011;5026;51.494;11.974;2023-03-03T00:19:22;24.77;;;11.43;;
9970;SDS011;5026;51.494;11.974;2023-03-03T00:21:49;35.90;;;11.70;;
9970;SDS011;5026;51.494;11.974;2023-03-03T00:24:18;24.37;;;10.43;;
9970;SDS011;5026;51.494;11.974;2023-03-03T00:26:47;21.60;;;10.47;;
9970;SDS011;5026;51.494;11.974;2023-03-03T00:29:34;23.37;;;10.63;;
9970;SDS011;5026;51.494;11.974;2023-03-03T00:34:48;20.87;;;10.37;;
9970;SDS011;5026;51.494;11.974;2023-03-03T00:37:26;23.57;;;10.90;;
9970;SDS011;5026;51.494;11.974;2023-03-03T00:40:00;28.37;;;10.90;;
9970;SDS011;5026;51.494;11.974;2023-03-03T00:42:41;24.83;;;9.93;;
9970;SDS011;5026;51.494;11.974;2023-03-03T00:45:24;22.80;;;10.43;;
9970;SDS011;5026;51.494;11.974;2023-03-03T00:47:54;24.57;;;10.73;;
9970;SDS011;5026;51.494;11.974;2023-03-03T00:50:26;23.70;;;10.40;;
9970;SDS011;5026;51.494;11.974;2023-03-03T00:53:03;21.13;;;10.47;;
9970;SDS011;5026;51.494;11.974;2023-03-03T00:55:32;19.77;;;9.87;;
9970;SDS011;5026;51.494;11.974;2023-03-03T00:58:00;19.37;;;9.17;;
9970;SDS011;5026;51.494;11.974;2023-03-03T01:00:29;17.80;;;9.47;;
9970;SDS011;5026;51.494;11.974;2023-03-03T01:02:56;21.47;;;10.27;;
9970;SDS011;5026;51.494;11.974;2023-03-03T01:05:26;21.40;;;10.37;;
9970;SDS011;5026;51.494;11.974;2023-03-03T01:07:52;24.80;;;9.43;;
9970;SDS011;5026;51.494;11.974;2023-03-03T01:10:19;19.43;;;9.13;;
9970;SDS011;5026;51.494;11.974;2023-03-03T01:12:46;19.17;;;9.73;;
9970;SDS011;5026;51.494;11.974;2023-03-03T01:15:14;25.07;;;10.20;;
9970;SDS011;5026;51.494;11.974;2023-03-03T01:17:42;16.57;;;8.80;;
9970;SDS011;5026;51.494;11.974;2023-03-03T01:20:11;18.77;;;8.90;;
9970;SDS011;5026;51.494;11.974;2023-03-03T01:22:39;17.17;;;8.53;;
9970;SDS011;5026;51.494;11.974;2023-03-03T01:25:07;17.43;;;8.27;;
9970;SDS011;5026;51.494;11.974;2023-03-03T01:27:35;17.13;;;8.87;;
9970;SDS011;5026;51.494;11.974;2023-03-03T01:30:03;15.50;;;8.20;;
9970;SDS011;5026;51.494;11.974;2023-03-03T01:32:30;16.43;;;7.63;;
9970;SDS011;5026;51.494;11.974;2023-03-03T01:34:59;16.90;;;8.20;;
9970;SDS011;5026;51.494;11.974;2023-03-03T01:37:26;16.13;;;8.33;;
9970;SDS011;5026;51.494;11.974;2023-03-03T01:39:53;18.17;;;8.57;;
9970;SDS011;5026;51.494;11.974;2023-03-03T01:42:20;18.20;;;8.27;;
9970;SDS011;5026;51.494;11.974;2023-03-03T01:44:48;16.17;;;8.23;;
9970;SDS011;5026;51.494;11.974;2023-03-03T01:47:35;16.67;;;8.40;;
9970;SDS011;5026;51.494;11.974;2023-03-03T01:50:05;18.50;;;8.67;;
9970;SDS011;5026;51.494;11.974;2023-03-03T01:52:37;16.00;;;8.07;;
9970;SDS011;5026;51.494;11.974;2023-03-03T01:55:07;15.07;;;7.43;;
9970;SDS011;5026;51.494;11.974;2023-03-03T01:57:39;16.40;;;7.90;;
9970;SDS011;5026;51.494;11.974;2023-03-03T02:00:10;16.13;;;7.50;;
9970;SDS011;5026;51.494;11.974;2023-03-03T02:02:38;16.10;;;8.07;;
9970;SDS011;5026;51.494;11.974;2023-03-03T02:05:08;13.33;;;7.23;;
9970;SDS011;5026;51.494;11.974;2023-03-03T02:07:35;14.63;;;7.57;;
9970;SDS011;5026;51.494;11.974;2023-03-03T02:10:04;14.13;;;7.83;;
9970;SDS011;5026;51.494;11.974;2023-03-03T02:12:35;16.23;;;8.83;;
9970;SDS011;5026;51.494;11.974;2023-03-03T02:15:10;16.90;;;8.23;;
9970;SDS011;5026;51.494;11.974;2023-03-03T02:17:42;21.07;;;9.10;;
9970;SDS011;5026;51.494;11.974;2023-03-03T02:20:11;21.33;;;9.10;;
9970;SDS011;5026;51.494;11.974;2023-03-03T02:22:46;18.20;;;9.10;;
9970;SDS011;5026;51.494;11.974;2023-03-03T02:25:18;24.50;;;10.87;;
9970;SDS011;5026;51.494;11.974;2023-03-03T02:27:55;27.43;;;11.00;;
9970;SDS011;5026;51.494;11.974;2023-03-03T02:30:22;25.40;;;10.47;;
9970;SDS011;5026;51.494;11.974;2023-03-03T02:32:49;21.90;;;10.33;;
9970;SDS011;5026;51.494;11.974;2023-03-03T02:35:30;25.90;;;10.87;;
9970;SDS011;5026;51.494;11.974;2023-03-03T02:38:01;27.60;;;12.17;;
9970;SDS011;5026;51.494;11.974;2023-03-03T02:40:41;32.70;;;12.63;;
9970;SDS011;5026;51.494;11.974;2023-03-03T02:43:12;34.23;;;11.90;;
9970;SDS011;5026;51.494;11.974;2023-03-03T02:45:42;31.30;;;12.87;;
9970;SDS011;5026;51.494;11.974;2023-03-03T02:48:10;32.93;;;13.40;;
9970;SDS011;5026;51.494;11.974;2023-03-03T02:50:36;34.70;;;13.13;;
9970;SDS011;5026;51.494;11.974;2023-03-03T02:53:03;31.53;;;12.97;;
9970;SDS011;5026;51.494;11.974;2023-03-03T02:55:30;30.47;;;12.40;;
9970;SDS011;5026;51.494;11.974;2023-03-03T02:57:57;31.73;;;13.60;;
9970;SDS011;5026;51.494;11.974;2023-03-03T03:00:25;35.00;;;13.07;;
9970;SDS011;5026;51.494;11.974;2023-03-03T03:02:52;33.23;;;13.87;;
9970;SDS011;5026;51.494;11.974;2023-03-03T03:05:19;35.40;;;13.87;;
9970;SDS011;5026;51.494;11.974;2023-03-03T03:07:46;33.27;;;13.10;;
9970;SDS011;5026;51.494;11.974;2023-03-03T03:10:13;33.73;;;14.67;;
9970;SDS011;5026;51.494;11.974;2023-03-03T03:12:40;31.43;;;13.30;;
9970;SDS011;5026;51.494;11.974;2023-03-03T03:15:07;31.47;;;12.73;;
9970;SDS011;5026;51.494;11.974;2023-03-03T03:17:36;31.90;;;12.87;;
9970;SDS011;5026;51.494;11.974;2023-03-03T03:20:04;28.93;;;13.63;;
9970;SDS011;5026;51.494;11.974;2023-03-03T03:22:32;31.00;;;12.77;;
9970;SDS011;5026;51.494;11.974;2023-03-03T03:24:59;27.17;;;11.70;;
9970;SDS011;5026;51.494;11.974;2023-03-03T03:27:26;28.77;;;11.87;;
9970;SDS011;5026;51.494;11.974;2023-03-03T03:29:52;28.03;;;11.07;;
9970;SDS011;5026;51.494;11.974;2023-03-03T03:32:19;28.73;;;12.63;;
9970;SDS011;5026;51.494;11.974;2023-03-03T03:34:48;28.80;;;11.27;;
9970;SDS011;5026;51.494;11.974;2023-03-03T03:37:15;27.77;;;11.67;;
9970;SDS011;5026;51.494;11.974;2023-03-03T03:39:42;26.20;;;10.87;;
9970;SDS011;5026;51.494;11.974;2023-03-03T03:42:09;26.07;;;11.00;;
9970;SDS011;5026;51.494;11.974;2023-03-03T03:44:36;27.40;;;11.53;;
9970;SDS011;5026;51.494;11.974;2023-03-03T03:47:03;23.93;;;11.17;;
9970;SDS011;5026;51.494;11.974;2023-03-03T03:49:30;27.73;;;11.43;;
9970;SDS011;5026;51.494;11.974;2023-03-03T03:51:58;29.63;;;11.77;;
9970;SDS011;5026;51.494;11.974;2023-03-03T03:54:26;23.70;;;10.90;;
9970;SDS011;5026;51.494;11.974;2023-03-03T03:56:53;30.97;;;11.80;;
9970;SDS011;5026;51.494;11.974;2023-03-03T03:59:20;25.07;;;11.23;;
9970;SDS011;5026;51.494;11.974;2023-03-03T04:01:47;31.03;;;11.80;;
9970;SDS011;5026;51.494;11.974;2023-03-03T04:04:14;24.63;;;11.20;;
9970;SDS011;5026;51.494;11.974;2023-03-03T04:06:41;24.27;;;10.37;;
9970;SDS011;5026;51.494;11.974;2023-03-03T04:09:09;35.33;;;9.27;;
9970;SDS011;5026;51.494;11.974;2023-03-03T04:11:36;22.50;;;10.10;;
9970;SDS011;5026;51.494;11.974;2023-03-03T04:14:03;22.97;;;9.50;;
9970;SDS011;5026;51.494;11.974;2023-03-03T04:16:30;20.07;;;9.30;;
9970;SDS011;5026;51.494;11.974;2023-03-03T04:18:58;26.03;;;10.27;;
9970;SDS011;5026;51.494;11.974;2023-03-03T04:21:24;27.13;;;10.13;;
9970;SDS011;5026;51.494;11.974;2023-03-03T04:23:51;22.73;;;10.03;;
9970;SDS011;5026;51.494;11.974;2023-03-03T04:26:20;24.20;;;10.03;;
9970;SDS011;5026;51.494;11.974;2023-03-03T04:28:47;22.17;;;9.53;;
9970;SDS011;5026;51.494;11.974;2023-03-03T04:31:14;23.10;;;9.67;;
9970;SDS011;5026;51.494;11.974;2023-03-03T04:33:41;18.00;;;8.50;;
9970;SDS011;5026;51.494;11.974;2023-03-03T04:36:07;17.43;;;7.93;;
9970;SDS011;5026;51.494;11.974;2023-03-03T04:38:34;16.37;;;7.57;;
9970;SDS011;5026;51.494;11.974;2023-03-03T04:41:01;14.97;;;7.10;;
9970;SDS011;5026;51.494;11.974;2023-03-03T04:43:30;14.23;;;7.50;;
9970;SDS011;5026;51.494;11.974;2023-03-03T04:45:57;12.80;;;6.30;;
9970;SDS011;5026;51.494;11.974;2023-03-03T04:48:24;12.97;;;7.07;;
9970;SDS011;5026;51.494;11.974;2023-03-03T04:50:51;13.90;;;6.67;;
9970;SDS011;5026;51.494;11.974;2023-03-03T04:53:18;14.37;;;6.90;;
9970;SDS011;5026;51.494;11.974;2023-03-03T04:55:45;12.20;;;6.40;;
9970;SDS011;5026;51.494;11.974;2023-03-03T04:58:14;13.93;;;7.17;;
9970;SDS011;5026;51.494;11.974;2023-03-03T05:00:44;14.90;;;6.90;;
9970;SDS011;5026;51.494;11.974;2023-03-03T05:03:12;14.43;;;6.83;;
9970;SDS011;5026;51.494;11.974;2023-03-03T05:05:39;15.07;;;7.03;;
9970;SDS011;5026;51.494;11.974;2023-03-03T05:08:06;15.83;;;7.07;;
9970;SDS011;5026;51.494;11.974;2023-03-03T05:10:33;18.53;;;7.80;;
9970;SDS011;5026;51.494;11.974;2023-03-03T05:13:00;20.27;;;8.53;;
9970;SDS011;5026;51.494;11.974;2023-03-03T05:15:26;23.40;;;8.53;;
9970;SDS011;5026;51.494;11.974;2023-03-03T05:17:55;18.13;;;8.30;;
9970;SDS011;5026;51.494;11.974;2023-03-03T05:20:22;22.47;;;8.63;;
9970;SDS011;5026;51.494;11.974;2023-03-03T05:22:49;24.73;;;10.03;;
9970;SDS011;5026;51.494;11.974;2023-03-03T05:25:16;25.50;;;9.93;;
9970;SDS011;5026;51.494;11.974;2023-03-03T05:27:43;26.80;;;10.80;;
9970;SDS011;5026;51.494;11.974;2023-03-03T05:30:11;24.07;;;10.47;;
9970;SDS011;5026;51.494;11.974;2023-03-03T05:32:38;24.47;;;10.10;;
9970;SDS011;5026;51.494;11.974;2023-03-03T05:35:07;23.77;;;9.73;;
9970;SDS011;5026;51.494;11.974;2023-03-03T05:37:34;22.03;;;9.27;;
9970;SDS011;5026;51.494;11.974;2023-03-03T05:40:01;21.20;;;9.03;;
9970;SDS011;5026;51.494;11.974;2023-03-03T05:42:29;25.17;;;9.67;;
9970;SDS011;5026;51.494;11.974;2023-03-03T05:44:56;25.10;;;9.87;;
9970;SDS011;5026;51.494;11.974;2023-03-03T05:47:23;20.23;;;9.17;;
9970;SDS011;5026;51.494;11.974;2023-03-03T05:49:50;23.90;;;9.33;;
9970;SDS011;5026;51.494;11.974;2023-03-03T05:52:18;27.47;;;9.73;;
9970;SDS011;5026;51.494;11.974;2023-03-03T05:54:45;25.47;;;9.97;;
9970;SDS011;5026;51.494;11.974;2023-03-03T05:57:12;24.40;;;9.17;;
9970;SDS011;5026;51.494;11.974;2023-03-03T05:59:39;22.50;;;9.47;;
9970;SDS011;5026;51.494;11.974;2023-03-03T06:02:06;24.83;;;10.10;;
9970;SDS011;5026;51.494;11.974;2023-03-03T06:04:33;24.63;;;9.50;;
9970;SDS011;5026;51.494;11.974;2023-03-03T06:07:00;20.37;;;9.23;;
9970;SDS011;5026;51.494;11.974;2023-03-03T06:09:29;23.97;;;9.97;;
9970;SDS011;5026;51.494;11.974;2023-03-03T06:11:55;21.03;;;9.20;;
9970;SDS011;5026;51.494;11.974;2023-03-03T06:14:22;21.23;;;8.57;;
9970;SDS011;5026;51.494;11.974;2023-03-03T06:16:50;24.03;;;8.17;;
9970;SDS011;5026;51.494;11.974;2023-03-03T06:19:17;20.07;;;8.60;;
9970;SDS011;5026;51.494;11.974;2023-03-03T06:21:44;20.83;;;9.53;;
9970;SDS011;5026;51.494;11.974;2023-03-03T06:24:10;19.00;;;8.77;;
9970;SDS011;5026;51.494;11.974;2023-03-03T06:26:39;20.47;;;8.67;;
9970;SDS011;5026;51.494;11.974;2023-03-03T06:29:06;21.17;;;9.10;;
9970;SDS011;5026;51.494;11.974;2023-03-03T06:31:33;20.23;;;8.57;;
9970;SDS011;5026;51.494;11.974;2023-03-03T06:34:00;20.07;;;8.63;;
9970;SDS011;5026;51.494;11.974;2023-03-03T06:36:28;19.30;;;8.67;;
9970;SDS011;5026;51.494;11.974;2023-03-03T06:38:54;21.23;;;8.67;;
9970;SDS011;5026;51.494;11.974;2023-03-03T06:41:21;25.00;;;9.00;;
9970;SDS011;5026;51.494;11.974;2023-03-03T06:43:50;18.53;;;8.00;;
9970;SDS011;5026;51.494;11.974;2023-03-03T06:46:16;21.60;;;9.13;;
9970;SDS011;5026;51.494;11.974;2023-03-03T06:48:43;22.73;;;9.30;;
9970;SDS011;5026;51.494;11.974;2023-03-03T06:51:16;21.53;;;9.07;;
9970;SDS011;5026;51.494;11.974;2023-03-03T06:53:47;21.93;;;9.27;;
9970;SDS011;5026;51.494;11.974;2023-03-03T06:56:15;20.20;;;8.73;;
9970;SDS011;5026;51.494;11.974;2023-03-03T06:58:43;20.97;;;9.27;;
9970;SDS011;5026;51.494;11.974;2023-03-03T07:01:13;22.90;;;9.03;;
9970;SDS011;5026;51.494;11.974;2023-03-03T07:03:42;27.00;;;11.03;;
9970;SDS011;5026;51.494;11.974;2023-03-03T07:06:14;25.47;;;9.40;;
9970;SDS011;5026;51.494;11.974;2023-03-03T07:08:45;23.70;;;9.73;;
9970;SDS011;5026;51.494;11.974;2023-03-03T07:11:14;21.63;;;9.97;;
9970;SDS011;5026;51.494;11.974;2023-03-03T07:13:44;22.23;;;10.43;;
9970;SDS011;5026;51.494;11.974;2023-03-03T07:16:14;21.90;;;9.23;;
9970;SDS011;5026;51.494;11.974;2023-03-03T07:18:43;25.87;;;10.23;;
9970;SDS011;5026;51.494;11.974;2023-03-03T07:21:17;25.57;;;9.57;;
9970;SDS011;5026;51.494;11.974;2023-03-03T07:23:46;20.43;;;8.40;;
9970;SDS011;5026;51.494;11.974;2023-03-03T07:26:15;26.00;;;9.13;;
9970;SDS011;5026;51.494;11.974;2023-03-03T07:28:45;23.90;;;9.77;;
9970;SDS011;5026;51.494;11.974;2023-03-03T07:31:24;27.07;;;11.43;;
9970;SDS011;5026;51.494;11.974;2023-03-03T07:33:54;25.13;;;10.03;;
9970;SDS011;5026;51.494;11.974;2023-03-03T07:36:25;25.50;;;9.90;;
9970;SDS011;5026;51.494;11.974;2023-03-03T07:38:54;24.60;;;9.17;;
9970;SDS011;5026;51.494;11.974;2023-03-03T07:41:24;22.87;;;10.17;;
9970;SDS011;5026;51.494;11.974;2023-03-03T07:43:52;22.53;;;9.60;;
9970;SDS011;5026;51.494;11.974;2023-03-03T07:46:26;20.77;;;9.87;;
9970;SDS011;5026;51.494;11.974;2023-03-03T07:48:56;25.40;;;9.53;;
9970;SDS011;5026;51.494;11.974;2023-03-03T07:51:25;24.10;;;10.40;;
9970;SDS011;5026;51.494;11.974;2023-03-03T07:53:55;27.43;;;10.83;;
9970;SDS011;5026;51.494;11.974;2023-03-03T07:56:36;25.50;;;11.13;;
9970;SDS011;5026;51.494;11.974;2023-03-03T07:59:07;31.53;;;10.43;;
9970;SDS011;5026;51.494;11.974;2023-03-03T08:01:47;24.47;;;10.73;;
9970;SDS011;5026;51.494;11.974;2023-03-03T08:04:19;23.57;;;10.07;;
9970;SDS011;5026;51.494;11.974;2023-03-03T08:06:53;27.30;;;10.40;;
9970;SDS011;5026;51.494;11.974;2023-03-03T08:12:26;27.87;;;10.03;;
9970;SDS011;5026;51.494;11.974;2023-03-03T08:14:57;26.93;;;11.10;;
9970;SDS011;5026;51.494;11.974;2023-03-03T08:17:37;24.30;;;10.23;;
9970;SDS011;5026;51.494;11.974;2023-03-03T08:20:09;23.10;;;8.77;;
9970;SDS011;5026;51.494;11.974;2023-03-03T08:23:16;23.07;;;9.00;;
9970;SDS011;5026;51.494;11.974;2023-03-03T08:25:44;23.50;;;9.20;;
9970;SDS011;5026;51.494;11.974;2023-03-03T08:28:12;22.67;;;9.47;;
9970;SDS011;5026;51.494;11.974;2023-03-03T08:30:39;26.20;;;10.37;;
9970;SDS011;5026;51.494;11.974;2023-03-03T08:33:08;20.87;;;9.03;;
9970;SDS011;5026;51.494;11.974;2023-03-03T08:35:36;22.60;;;9.70;;
9970;SDS011;5026;51.494;11.974;2023-03-03T08:38:03;24.43;;;10.40;;
9970;SDS011;5026;51.494;11.974;2023-03-03T08:40:31;28.37;;;10.63;;
9970;SDS011;5026;51.494;11.974;2023-03-03T08:42:58;24.30;;;11.10;;
9970;SDS011;5026;51.494;11.974;2023-03-03T08:45:25;22.80;;;9.83;;
9970;SDS011;5026;51.494;11.974;2023-03-03T08:47:52;26.27;;;10.87;;
9970;SDS011;5026;51.494;11.974;2023-03-03T08:50:21;27.23;;;10.93;;
9970;SDS011;5026;51.494;11.974;2023-03-03T08:52:48;28.83;;;11.10;;
9970;SDS011;5026;51.494;11.974;2023-03-03T08:55:15;27.40;;;10.97;;
9970;SDS011;5026;51.494;11.974;2023-03-03T08:57:42;25.37;;;10.63;;
9970;SDS011;5026;51.494;11.974;2023-03-03T09:00:10;27.50;;;10.90;;
9970;SDS011;5026;51.494;11.974;2023-03-03T09:02:39;26.73;;;10.83;;
9970;SDS011;5026;51.494;11.974;2023-03-03T09:05:06;27.40;;;11.07;;
9970;SDS011;5026;51.494;11.974;2023-03-03T09:07:35;26.93;;;10.30;;
9970;SDS011;5026;51.494;11.974;2023-03-03T09:10:02;26.23;;;11.37;;
9970;SDS011;5026;51.494;11.974;2023-03-03T09:12:32;26.63;;;10.87;;
9970;SDS011;5026;51.494;11.974;2023-03-03T09:15:02;27.07;;;11.70;;
9970;SDS011;5026;51.494;11.974;2023-03-03T09:17:40;30.00;;;11.63;;
9970;SDS011;5026;51.494;11.974;2023-03-03T09:20:17;30.73;;;12.00;;
9970;SDS011;5026;51.494;11.974;2023-03-03T09:22:56;29.73;;;12.40;;
9970;SDS011;5026;51.494;11.974;2023-03-03T09:25:26;33.43;;;13.23;;
9970;SDS011;5026;51.494;11.974;2023-03-03T09:27:58;30.10;;;11.87;;
9970;SDS011;5026;51.494;11.974;2023-03-03T09:30:29;34.60;;;12.30;;
9970;SDS011;5026;51.494;11.974;2023-03-03T09:33:04;34.30;;;12.80;;
9970;SDS011;5026;51.494;11.974;2023-03-03T09:35:48;28.67;;;12.17;;
9970;SDS011;5026;51.494;11.974;2023-03-03T09:38:29;29.23;;;11.20;;
9970;SDS011;5026;51.494;11.974;2023-03-03T09:44:00;30.93;;;11.50;;
9970;SDS011;5026;51.494;11.974;2023-03-03T09:46:52;32.40;;;10.90;;
9970;SDS011;5026;51.494;11.974;2023-03-03T09:49:30;27.07;;;11.67;;
9970;SDS011;5026;51.494;11.974;2023-03-03T09:52:06;20.93;;;9.90;;
9970;SDS011;5026;51.494;11.974;2023-03-03T09:57:33;24.13;;;11.00;;
9970;SDS011;5026;51.494;11.974;2023-03-03T10:00:23;22.70;;;10.40;;
9970;SDS011;5026;51.494;11.974;2023-03-03T10:03:10;25.67;;;10.17;;
9970;SDS011;5026;51.494;11.974;2023-03-03T10:06:01;27.17;;;10.60;;
9970;SDS011;5026;51.494;11.974;2023-03-03T10:08:31;23.20;;;10.97;;
9970;SDS011;5026;51.494;11.974;2023-03-03T10:11:18;23.93;;;10.70;;
9970;SDS011;5026;51.494;11.974;2023-03-03T10:13:59;21.97;;;9.63;;
9970;SDS011;5026;51.494;11.974;2023-03-03T10:16:57;23.30;;;10.97;;
9970;SDS011;5026;51.494;11.974;2023-03-03T10:19:47;27.57;;;10.53;;
9970;SDS011;5026;51.494;11.974;2023-03-03T10:22:24;25.50;;;10.97;;
9970;SDS011;5026;51.494;11.974;2023-03-03T10:25:02;23.73;;;10.47;;
9970;SDS011;5026;51.494;11.974;2023-03-03T10:27:44;20.07;;;9.77;;
9970;SDS011;5026;51.494;11.974;2023-03-03T10:30:25;25.53;;;10.90;;
9970;SDS011;5026;51.494;11.974;2023-03-03T10:32:57;20.93;;;10.13;;
9970;SDS011;5026;51.494;11.974;2023-03-03T10:35:36;24.83;;;11.30;;
9970;SDS011;5026;51.494;11.974;2023-03-03T10:38:37;24.70;;;10.77;;
9970;SDS011;5026;51.494;11.974;2023-03-03T10:41:21;22.07;;;10.43;;
9970;SDS011;5026;51.494;11.974;2023-03-03T10:44:13;24.53;;;11.10;;
9970;SDS011;5026;51.494;11.974;2023-03-03T10:46:55;20.13;;;9.37;;
9970;SDS011;5026;51.494;11.974;2023-03-03T10:49:32;22.27;;;10.03;;
9970;SDS011;5026;51.494;11.974;2023-03-03T10:52:16;20.63;;;9.93;;
9970;SDS011;5026;51.494;11.974;2023-03-03T10:55:03;18.97;;;8.97;;
9970;SDS011;5026;51.494;11.974;2023-03-03T10:58:03;20.10;;;9.30;;
9970;SDS011;5026;51.494;11.974;2023-03-03T11:00:49;20.40;;;9.33;;
9970;SDS011;5026;51.494;11.974;2023-03-03T11:03:34;21.93;;;10.27;;
9970;SDS011;5026;51.494;11.974;2023-03-03T11:06:10;21.57;;;10.27;;
9970;SDS011;5026;51.494;11.974;2023-03-03T11:08:45;20.90;;;9.03;;
9970;SDS011;5026;51.494;11.974;2023-03-03T11:11:19;18.23;;;9.93;;
9970;SDS011;5026;51.494;11.974;2023-03-03T11:13:55;21.00;;;9.40;;
9970;SDS011;5026;51.494;11.974;2023-03-03T11:16:38;17.63;;;8.83;;
9970;SDS011;5026;51.494;11.974;2023-03-03T11:19:20;19.53;;;9.50;;
9970;SDS011;5026;51.494;11.974;2023-03-03T11:22:09;21.63;;;9.73;;
9970;SDS011;5026;51.494;11.974;2023-03-03T11:24:48;20.00;;;9.20;;
9970;SDS011;5026;51.494;11.974;2023-03-03T11:27:26;22.63;;;9.20;;
9970;SDS011;5026;51.494;11.974;2023-03-03T11:30:10;22.07;;;9.63;;
9970;SDS011;5026;51.494;11.974;2023-03-03T11:32:51;22.43;;;9.73;;
9970;SDS011;5026;51.494;11.974;2023-03-03T11:35:25;18.93;;;10.07;;
9970;SDS011;5026;51.494;11.974;2023-03-03T11:40:52;20.90;;;10.13;;
9970;SDS011;5026;51.494;11.974;2023-03-03T11:43:24;25.23;;;10.87;;
9970;SDS011;5026;51.494;11.974;2023-03-03T11:45:56;17.17;;;9.33;;
9970;SDS011;5026;51.494;11.974;2023-03-03T11:48:32;19.13;;;9.77;;
9970;SDS011;5026;51.494;11.974;2023-03-03T11:51:04;20.23;;;9.13;;
9970;SDS011;5026;51.494;11.974;2023-03-03T11:56:26;22.27;;;9.73;;
9970;SDS011;5026;51.494;11.974;2023-03-03T11:59:01;20.13;;;9.53;;
9970;SDS011;5026;51.494;11.974;2023-03-03T12:01:41;20.50;;;9.70;;
9970;SDS011;5026;51.494;11.974;2023-03-03T12:04:17;17.77;;;9.53;;
9970;SDS011;5026;51.494;11.974;2023-03-03T12:06:52;21.87;;;9.83;;
9970;SDS011;5026;51.494;11.974;2023-03-03T12:09:34;19.93;;;7.97;;
9970;SDS011;5026;51.494;11.974;2023-03-03T12:12:10;18.53;;;8.93;;
9970;SDS011;5026;51.494;11.974;2023-03-03T12:14:45;21.27;;;9.37;;
9970;SDS011;5026;51.494;11.974;2023-03-03T12:17:31;16.57;;;8.77;;
9970;SDS011;5026;51.494;11.974;2023-03-03T12:20:16;19.53;;;8.77;;
9970;SDS011;5026;51.494;11.974;2023-03-03T12:22:51;19.63;;;9.23;;
9970;SDS011;5026;51.494;11.974;2023-03-03T12:25:29;17.40;;;8.90;;
9970;SDS011;5026;51.494;11.974;2023-03-03T12:28:01;17.17;;;8.43;;
9970;SDS011;5026;51.494;11.974;2023-03-03T12:33:33;17.87;;;8.50;;
9970;SDS011;5026;51.494;11.974;2023-03-03T12:36:19;18.27;;;8.70;;
9970;SDS011;5026;51.494;11.974;2023-03-03T12:38:55;17.33;;;9.00;;
9970;SDS011;5026;51.494;11.974;2023-03-03T12:41:29;18.43;;;9.20;;
9970;SDS011;5026;51.494;11.974;2023-03-03T12:44:01;15.57;;;7.80;;
9970;SDS011;5026;51.494;11.974;2023-03-03T12:46:39;17.80;;;7.63;;
9970;SDS011;5026;51.494;11.974;2023-03-03T12:49:10;14.03;;;8.10;;
9970;SDS011;5026;51.494;11.974;2023-03-03T12:51:44;16.30;;;7.57;;
9970;SDS011;5026;51.494;11.974;2023-03-03T12:54:33;17.43;;;7.43;;
9970;SDS011;5026;51.494;11.974;2023-03-03T12:57:12;14.40;;;7.50;;
9970;SDS011;5026;51.494;11.974;2023-03-03T12:59:50;14.57;;;7.40;;
9970;SDS011;5026;51.494;11.974;2023-03-03T13:02:38;13.87;;;8.13;;
9970;SDS011;5026;51.494;11.974;2023-03-03T13:08:10;17.40;;;8.83;;
9970;SDS011;5026;51.494;11.974;2023-03-03T13:10:58;19.97;;;8.43;;
9970;SDS011;5026;51.494;11.974;2023-03-03T13:13:36;20.67;;;9.20;;
9970;SDS011;5026;51.494;11.974;2023-03-03T13:16:09;20.20;;;8.90;;
9970;SDS011;5026;51.494;11.974;2023-03-03T13:18:45;18.03;;;8.10;;
9970;SDS011;5026;51.494;11.974;2023-03-03T13:21:41;18.47;;;8.73;;
9970;SDS011;5026;51.494;11.974;2023-03-03T13:24:16;16.10;;;7.57;;
9970;SDS011;5026;51.494;11.974;2023-03-03T13:26:47;17.10;;;8.70;;
9970;SDS011;5026;51.494;11.974;2023-03-03T13:29:19;15.50;;;7.10;;
9970;SDS011;5026;51.494;11.974;2023-03-03T13:31:51;15.67;;;7.83;;
9970;SDS011;5026;51.494;11.974;2023-03-03T13:34:24;16.13;;;7.83;;
9970;SDS011;5026;51.494;11.974;2023-03-03T13:37:00;17.43;;;8.50;;
9970;SDS011;5026;51.494;11.974;2023-03-03T13:39:37;15.17;;;8.10;;
9970;SDS011;5026;51.494;11.974;2023-03-03T13:42:11;18.03;;;7.63;;
9970;SDS011;5026;51.494;11.974;2023-03-03T13:44:57;16.83;;;8.00;;
9970;SDS011;5026;51.494;11.974;2023-03-03T13:47:27;16.50;;;7.90;;
9970;SDS011;5026;51.494;11.974;2023-03-03T13:50:09;15.97;;;7.80;;
9970;SDS011;5026;51.494;11.974;2023-03-03T13:53:08;16.27;;;7.37;;
9970;SDS011;5026;51.494;11.974;2023-03-03T13:55:54;16.33;;;7.53;;
9970;SDS011;5026;51.494;11.974;2023-03-03T13:58:31;14.73;;;7.73;;
9970;SDS011;5026;51.494;11.974;2023-03-03T14:01:04;12.37;;;7.00;;
9970;SDS011;5026;51.494;11.974;2023-03-03T14:06:31;15.10;;;7.37;;
9970;SDS011;5026;51.494;11.974;2023-03-03T14:09:07;15.00;;;7.67;;
9970;SDS011;5026;51.494;11.974;2023-03-03T14:11:49;15.00;;;7.13;;
9970;SDS011;5026;51.494;11.974;2023-03-03T14:14:33;14.53;;;7.97;;
9970;SDS011;5026;51.494;11.974;2023-03-03T14:17:14;19.83;;;8.87;;
9970;SDS011;5026;51.494;11.974;2023-03-03T14:19:49;17.30;;;8.73;;
9970;SDS011;5026;51.494;11.974;2023-03-03T14:22:24;15.37;;;7.87;;
9970;SDS011;5026;51.494;11.974;2023-03-03T14:25:00;16.13;;;6.93;;
9970;SDS011;5026;51.494;11.974;2023-03-03T14:27:35;14.60;;;8.03;;
9970;SDS011;5026;51.494;11.974;2023-03-03T14:32:59;11.23;;;5.90;;
9970;SDS011;5026;51.494;11.974;2023-03-03T14:35:30;10.53;;;6.50;;
9970;SDS011;5026;51.494;11.974;2023-03-03T14:38:00;14.07;;;7.50;;
9970;SDS011;5026;51.494;11.974;2023-03-03T14:40:29;11.83;;;6.80;;
9970;SDS011;5026;51.494;11.974;2023-03-03T14:42:59;11.90;;;5.83;;
9970;SDS011;5026;51.494;11.974;2023-03-03T14:45:30;12.07;;;6.47;;
9970;SDS011;5026;51.494;11.974;2023-03-03T14:48:05;11.57;;;6.20;;
9970;SDS011;5026;51.494;11.974;2023-03-03T14:50:40;14.77;;;7.33;;
9970;SDS011;5026;51.494;11.974;2023-03-03T14:53:13;12.93;;;6.83;;
9970;SDS011;5026;51.494;11.974;2023-03-03T14:55:46;11.80;;;5.73;;
9970;SDS011;5026;51.494;11.974;2023-03-03T14:58:27;11.87;;;6.20;;
9970;SDS011;5026;51.494;11.974;2023-03-03T15:01:11;12.87;;;6.37;;
9970;SDS011;5026;51.494;11.974;2023-03-03T15:03:47;10.23;;;6.00;;
9970;SDS011;5026;51.494;11.974;2023-03-03T15:06:30;14.03;;;6.93;;
9970;SDS011;5026;51.494;11.974;2023-03-03T15:09:19;14.80;;;9.90;;
9970;SDS011;5026;51.494;11.974;2023-03-03T15:11:54;12.97;;;6.43;;
9970;SDS011;5026;51.494;11.974;2023-03-03T15:14:27;15.23;;;8.47;;
9970;SDS011;5026;51.494;11.974;2023-03-03T15:16:57;9.77;;;6.00;;
9970;SDS011;5026;51.494;11.974;2023-03-03T15:19:45;13.17;;;6.60;;
9970;SDS011;5026;51.494;11.974;2023-03-03T15:22:21;10.50;;;6.40;;
9970;SDS011;5026;51.494;11.974;2023-03-03T15:25:02;16.83;;;6.37;;
9970;SDS011;5026;51.494;11.974;2023-03-03T15:27:35;12.43;;;7.03;;
9970;SDS011;5026;51.494;11.974;2023-03-03T15:30:12;14.33;;;8.47;;
9970;SDS011;5026;51.494;11.974;2023-03-03T15:32:48;16.27;;;7.73;;
9970;SDS011;5026;51.494;11.974;2023-03-03T15:35:26;11.70;;;6.37;;
9970;SDS011;5026;51.494;11.974;2023-03-03T15:38:02;13.67;;;6.33;;
9970;SDS011;5026;51.494;11.974;2023-03-03T15:40:38;9.80;;;6.07;;
9970;SDS011;5026;51.494;11.974;2023-03-03T15:43:12;12.03;;;7.03;;
9970;SDS011;5026;51.494;11.974;2023-03-03T15:45:49;10.43;;;5.50;;